Ashland, Nebraska
Current Conditions -  °F | °C
As of 3:15 AM on Friday 24 Oct 2014 (Local Time) from KMLE Reporting Station
Clear Clear  
Wind Chill: 54°   Ceiling: Unl
Heat Index: 54°   Visibility: 10mi
Dew Point: 51°   Wind: 0mph
Humidity: 92%   Direction: NA
Pressure: 29.98"   Gusts: NA
Location:  41.04°N, 96.37°W
Report Text: KMLE 240815Z AUTO 00000KT 10SM CLR 12/11 A2998 RMK AO2 T01200107
Loading
Personal Weather Stations






























Interactive Weather Map New forecast layout! Learn more

10-Day Weather Forecast

Advertisements
Track Severe Weather on mobile